Time;durP1;ratioP1;P1;durP2;ratioP2;P2;SDS_P1;SDS_P2;PMS_P1;PMS_P2;Temp;Humidity;BMP_temperature;BMP_pressure;BME280_temperature;BME280_humidity;BME280_pressure;Samples;Min_cycle;Max_cycle;Signal;HPM_P1;HPM_P2
2022/12/11 00:00:55;;;;;;;6.78;1.73;;;25.80;99.90;;;;;;5082611;28;20199;-80
2022/12/11 00:03:26;;;;;;;3.88;1.30;;;25.90;99.90;;;;;;5090282;28;20192;-79
2022/12/11 00:05:57;;;;;;;2.80;1.10;;;26.10;99.90;;;;;;5099567;28;20227;-81
2022/12/11 00:08:28;;;;;;;4.88;1.40;;;26.10;99.90;;;;;;5075123;28;20306;-82
2022/12/11 00:11:03;;;;;;;4.65;1.38;;;26.20;99.90;;;;;;5072266;28;20257;-85
2022/12/11 00:13:34;;;;;;;5.53;1.60;;;26.30;99.90;;;;;;5073013;28;20328;-81
2022/12/11 00:16:06;;;;;;;3.92;1.40;;;26.20;99.90;;;;;;5071502;28;20729;-80
2022/12/11 00:18:37;;;;;;;7.60;1.60;;;26.30;99.90;;;;;;5073273;28;20204;-81
2022/12/11 00:21:09;;;;;;;8.02;1.67;;;26.30;99.90;;;;;;5082282;28;20561;-81
2022/12/11 00:23:40;;;;;;;5.25;1.20;;;26.30;99.90;;;;;;5093885;28;20294;-81
2022/12/11 00:26:17;;;;;;;8.70;1.30;;;26.30;99.90;;;;;;5093600;28;20196;-81
2022/12/11 00:28:47;;;;;;;5.20;1.20;;;26.40;99.90;;;;;;5093503;28;20215;-81
2022/12/11 00:31:21;;;;;;;4.65;1.30;;;26.50;99.90;;;;;;5093301;28;20222;-80
2022/12/11 00:33:53;;;;;;;2.65;0.98;;;26.60;99.90;;;;;;5093195;28;20200;-80
2022/12/11 00:36:26;;;;;;;2.90;1.15;;;26.60;99.90;;;;;;5092122;28;20201;-81
2022/12/11 00:38:57;;;;;;;3.83;1.40;;;26.60;99.90;;;;;;5092700;28;20280;-81
2022/12/11 00:41:30;;;;;;;5.25;1.30;;;26.60;99.90;;;;;;5093313;28;20671;-81
2022/12/11 00:44:01;;;;;;;6.63;1.50;;;26.60;99.90;;;;;;5093797;28;20672;-81
2022/12/11 00:46:32;;;;;;;4.28;1.50;;;26.70;99.90;;;;;;5104179;28;20201;-81
2022/12/11 00:49:03;;;;;;;5.88;1.42;;;26.80;99.90;;;;;;5093484;28;20217;-81
2022/12/11 00:51:34;;;;;;;4.30;1.40;;;26.90;99.90;;;;;;5092737;28;20313;-81
2022/12/11 00:54:06;;;;;;;8.70;1.73;;;27.00;99.90;;;;;;5083840;28;20200;-81
2022/12/11 00:56:40;;;;;;;7.13;1.40;;;27.10;99.90;;;;;;5085821;28;20202;-82
2022/12/11 00:59:11;;;;;;;5.50;1.63;;;27.20;99.90;;;;;;5093765;28;20231;-80
2022/12/11 01:01:42;;;;;;;8.57;1.98;;;27.20;99.90;;;;;;5093919;28;20195;-81
2022/12/11 01:04:15;;;;;;;8.38;1.63;;;27.30;99.90;;;;;;5096886;28;20188;-81
2022/12/11 01:06:46;;;;;;;5.85;1.73;;;27.20;99.90;;;;;;5094090;28;20206;-81
2022/12/11 01:12:05;;;;;;;5.68;1.60;;;27.30;99.90;;;;;;5078754;28;20583;-80
2022/12/11 01:14:36;;;;;;;6.20;2.03;;;27.10;99.90;;;;;;5092779;28;20250;-81
2022/12/11 01:17:10;;;;;;;7.40;1.50;;;27.10;99.90;;;;;;5092735;28;20203;-81
2022/12/11 01:19:42;;;;;;;4.07;1.45;;;27.20;99.90;;;;;;5093329;28;20221;-82
2022/12/11 01:22:13;;;;;;;6.25;1.52;;;27.20;99.90;;;;;;5093131;28;20604;-80
2022/12/11 01:24:44;;;;;;;6.28;1.67;;;27.10;99.90;;;;;;5092919;28;20286;-83
2022/12/11 01:27:18;;;;;;;5.82;1.52;;;27.00;99.90;;;;;;5090861;28;20211;-81
2022/12/11 01:29:49;;;;;;;5.20;1.42;;;26.90;99.90;;;;;;5092115;28;20200;-81
2022/12/11 01:32:20;;;;;;;5.53;1.60;;;27.00;99.90;;;;;;5076459;28;20558;-80
2022/12/11 01:34:52;;;;;;;6.78;1.45;;;27.00;99.90;;;;;;5092673;28;20195;-80
2022/12/11 01:37:23;;;;;;;5.88;1.50;;;26.90;99.90;;;;;;5087296;28;20225;-81
2022/12/11 01:39:54;;;;;;;5.90;1.48;;;27.00;99.90;;;;;;5083812;28;20545;-82
2022/12/11 01:42:28;;;;;;;4.97;1.30;;;27.00;99.90;;;;;;5093811;28;20191;-80
2022/12/11 01:45:26;;;;;;;7.35;1.65;;;26.90;99.90;;;;;;5075391;28;20757;-80
2022/12/11 01:48:07;;;;;;;6.78;1.50;;;27.10;99.90;;;;;;5078796;28;20217;-80
2022/12/11 01:50:42;;;;;;;4.18;1.23;;;27.20;99.90;;;;;;5095315;28;20229;-80
2022/12/11 01:53:19;;;;;;;5.13;1.42;;;27.40;99.90;;;;;;5084562;28;20240;-82
2022/12/11 01:55:56;;;;;;;3.95;1.10;;;27.50;99.90;;;;;;5089995;28;20195;-81
2022/12/11 01:58:32;;;;;;;4.75;1.38;;;27.40;99.90;;;;;;5089947;28;20616;-82
2022/12/11 02:01:04;;;;;;;8.95;1.30;;;27.40;99.90;;;;;;5092275;28;20217;-82
2022/12/11 02:03:35;;;;;;;2.50;1.00;;;27.70;99.90;;;;;;5092528;28;20196;-81
2022/12/11 02:06:06;;;;;;;5.45;1.50;;;27.90;99.90;;;;;;5092235;28;20195;-82
2022/12/11 02:08:37;;;;;;;5.10;1.30;;;28.00;99.90;;;;;;5075103;28;20258;-81
2022/12/11 02:11:17;;;;;;;4.78;1.60;;;28.10;99.90;;;;;;5087880;28;20226;-81
2022/12/11 02:13:56;;;;;;;4.65;1.38;;;28.20;99.90;;;;;;5088300;28;20598;-81
2022/12/11 02:16:33;;;;;;;4.10;1.33;;;28.30;99.90;;;;;;5092074;28;20203;-81
2022/12/11 02:19:11;;;;;;;6.03;1.40;;;28.40;99.90;;;;;;5091063;28;20201;-80
2022/12/11 02:21:47;;;;;;;6.55;1.40;;;28.60;99.90;;;;;;5091849;28;20205;-81
2022/12/11 02:24:45;;;;;;;5.25;1.40;;;28.70;99.90;;;;;;5091734;28;20210;-82
2022/12/11 02:27:29;;;;;;;4.63;1.35;;;28.70;99.90;;;;;;5090456;28;20698;-81
2022/12/11 02:30:06;;;;;;;6.43;1.35;;;28.80;99.90;;;;;;5092301;28;20649;-81
2022/12/11 02:32:41;;;;;;;6.32;1.70;;;28.90;99.90;;;;;;5100435;28;20190;-80
2022/12/11 02:35:19;;;;;;;4.75;1.20;;;29.10;99.90;;;;;;5091363;28;20202;-81
2022/12/11 02:37:56;;;;;;;6.65;1.48;;;29.10;99.90;;;;;;5090436;28;20191;-81
2022/12/11 02:40:33;;;;;;;6.15;1.60;;;29.20;99.90;;;;;;5086161;28;20200;-81
2022/12/11 02:43:07;;;;;;;2.72;0.98;;;28.90;99.90;;;;;;5085496;28;20188;-81
2022/12/11 02:45:42;;;;;;;6.43;1.52;;;28.90;99.90;;;;;;5085197;28;20281;-81
2022/12/11 02:48:15;;;;;;;3.67;1.40;;;29.00;99.90;;;;;;5085031;28;20199;-81
2022/12/11 02:50:48;;;;;;;3.50;1.10;;;29.00;99.90;;;;;;5093144;28;20227;-82
2022/12/11 02:53:23;;;;;;;5.40;1.55;;;29.10;99.90;;;;;;5091798;28;20191;-82
2022/12/11 02:56:00;;;;;;;5.38;1.27;;;28.90;99.90;;;;;;5087730;28;20661;-81
2022/12/11 02:58:33;;;;;;;7.38;1.40;;;29.00;99.90;;;;;;5088786;28;20562;-81
2022/12/11 03:01:06;;;;;;;4.78;1.75;;;29.10;99.90;;;;;;5085303;28;20191;-80
2022/12/11 03:03:37;;;;;;;4.00;1.23;;;29.10;99.90;;;;;;5071170;28;20196;-81
2022/12/11 03:06:09;;;;;;;3.78;1.05;;;29.20;99.90;;;;;;5090800;28;20708;-82
2022/12/11 03:08:40;;;;;;;3.40;1.40;;;29.00;99.90;;;;;;5091341;28;20198;-81
2022/12/11 03:11:13;;;;;;;6.47;1.40;;;29.10;99.90;;;;;;5090709;28;20219;-81
2022/12/11 03:13:48;;;;;;;3.90;1.33;;;29.30;99.90;;;;;;5090852;28;20227;-81
2022/12/11 03:16:31;;;;;;;4.88;1.40;;;29.40;99.90;;;;;;5090957;28;20740;-81
2022/12/11 03:19:10;;;;;;;3.40;1.10;;;29.20;99.90;;;;;;5090960;28;20194;-81
2022/12/11 03:21:47;;;;;;;8.02;1.33;;;29.40;99.90;;;;;;5089641;28;20195;-81
2022/12/11 03:24:23;;;;;;;3.88;1.05;;;29.50;99.90;;;;;;5089154;28;20285;-81
2022/12/11 03:27:02;;;;;;;3.42;1.20;;;29.50;99.90;;;;;;5090203;28;20198;-81
2022/12/11 03:29:38;;;;;;;3.38;1.33;;;29.70;99.90;;;;;;5091235;28;20195;-82
2022/12/11 03:32:13;;;;;;;3.47;1.45;;;29.90;99.90;;;;;;5074822;28;20314;-81
2022/12/11 03:34:54;;;;;;;4.20;1.33;;;29.90;99.90;;;;;;5075355;28;20275;-81
2022/12/11 03:37:27;;;;;;;5.65;1.48;;;29.90;99.90;;;;;;5074633;28;20222;-81
2022/12/11 03:40:01;;;;;;;6.22;1.50;;;30.00;99.90;;;;;;5083830;28;20265;-81
2022/12/11 03:42:33;;;;;;;4.65;1.40;;;29.90;99.90;;;;;;5093373;28;20195;-81
2022/12/11 03:45:07;;;;;;;5.78;1.40;;;30.00;99.90;;;;;;5094806;28;20183;-81
2022/12/11 03:47:41;;;;;;;4.15;1.30;;;30.30;99.90;;;;;;5098252;28;20199;-81
2022/12/11 03:50:15;;;;;;;3.97;1.30;;;30.60;99.90;;;;;;5099539;28;20267;-80
2022/12/11 03:52:48;;;;;;;5.80;1.38;;;30.40;99.90;;;;;;5103406;28;20290;-79
2022/12/11 03:55:23;;;;;;;5.80;1.40;;;30.60;99.90;;;;;;5102786;28;20203;-80
2022/12/11 03:57:54;;;;;;;4.50;1.40;;;30.50;99.90;;;;;;5097490;28;20237;-81
2022/12/11 04:00:25;;;;;;;7.78;1.50;;;30.70;99.90;;;;;;5097544;28;20285;-84
2022/12/11 04:03:16;;;;;;;4.03;1.23;;;30.80;99.90;;;;;;5098071;28;20195;-83
2022/12/11 04:05:49;;;;;;;6.82;1.40;;;30.60;99.90;;;;;;5098950;28;20196;-83
2022/12/11 04:08:21;;;;;;;4.88;1.33;;;30.50;99.90;;;;;;5074033;28;20207;-82
2022/12/11 04:11:33;;;;;;;7.70;1.38;;;30.70;99.90;;;;;;5074430;28;20220;-83
2022/12/11 04:13:44;;;;;;;5.40;1.38;;;30.60;99.90;;;;;;5076556;28;20250;-82
2022/12/11 04:16:13;;;;;;;4.30;1.40;;;30.70;99.90;;;;;;5093971;28;20290;-81
2022/12/11 04:24:19;;;;;;;4.70;1.27;;;30.60;99.90;;;;;;5094095;28;20683;-83
2022/12/11 04:26:50;;;;;;;5.45;1.50;;;30.70;99.90;;;;;;5093771;28;20218;-83
2022/12/11 04:29:21;;;;;;;5.50;1.50;;;30.90;99.90;;;;;;5094266;28;20203;-82
2022/12/11 04:31:53;;;;;;;4.63;1.35;;;30.90;99.90;;;;;;5093877;28;20249;-83
2022/12/11 04:34:26;;;;;;;5.13;1.23;;;30.80;99.90;;;;;;5093268;28;20333;-84
2022/12/11 04:37:00;;;;;;;6.15;1.17;;;30.80;99.90;;;;;;5095456;28;20195;-83
2022/12/11 04:39:31;;;;;;;5.70;1.48;;;30.70;99.90;;;;;;5093728;28;20195;-83
2022/12/11 04:42:02;;;;;;;6.18;1.30;;;30.80;99.90;;;;;;5089772;28;20686;-83
2022/12/11 04:44:32;;;;;;;3.40;0.98;;;30.70;99.90;;;;;;5097004;28;20206;-83
2022/12/11 04:47:04;;;;;;;5.03;1.35;;;31.00;99.90;;;;;;5094577;28;20199;-83
2022/12/11 04:49:39;;;;;;;3.63;1.20;;;31.10;99.90;;;;;;5096313;28;20199;-82
2022/12/11 04:52:10;;;;;;;5.85;1.30;;;31.20;99.90;;;;;;5095339;28;20232;-82
2022/12/11 04:54:41;;;;;;;7.68;1.33;;;31.00;99.90;;;;;;5104433;28;20210;-83
2022/12/11 04:57:12;;;;;;;5.57;1.13;;;31.00;99.90;;;;;;5093843;28;20565;-84
2022/12/11 04:59:43;;;;;;;7.15;1.20;;;31.40;99.90;;;;;;5093468;28;20210;-83
2022/12/11 05:02:14;;;;;;;7.20;1.20;;;31.60;99.90;;;;;;5095488;28;20191;-83
2022/12/11 05:04:47;;;;;;;3.55;1.20;;;31.10;99.90;;;;;;5091510;28;20195;-83
2022/12/11 05:07:18;;;;;;;4.95;1.40;;;31.40;99.90;;;;;;5079103;28;20195;-82
2022/12/11 05:09:49;;;;;;;5.03;1.45;;;31.60;99.90;;;;;;5087643;28;20684;-83
2022/12/11 05:12:21;;;;;;;4.55;1.20;;;31.90;99.90;;;;;;5092268;28;20234;-82
2022/12/11 05:14:55;;;;;;;7.63;1.58;;;31.80;99.90;;;;;;5092159;28;20300;-82
2022/12/11 05:17:27;;;;;;;7.00;1.20;;;31.50;99.90;;;;;;5091965;28;20282;-84
2022/12/11 05:20:00;;;;;;;6.30;1.50;;;31.30;99.90;;;;;;5092831;28;20206;-82
2022/12/11 05:22:33;;;;;;;4.57;1.33;;;31.50;99.90;;;;;;5093643;28;20203;-82
2022/12/11 05:25:06;;;;;;;6.20;1.55;;;31.80;99.90;;;;;;5092911;28;20213;-82
2022/12/11 05:27:37;;;;;;;5.75;1.42;;;31.90;99.90;;;;;;5087649;28;20629;-82
2022/12/11 05:30:08;;;;;;;8.93;1.70;;;32.10;99.90;;;;;;5092587;28;20298;-82
2022/12/11 05:32:40;;;;;;;10.25;1.73;;;32.40;99.90;;;;;;5091999;28;20230;-83
2022/12/11 05:35:14;;;;;;;5.18;1.63;;;32.40;99.10;;;;;;5083514;28;20572;-83
2022/12/11 05:37:46;;;;;;;6.15;1.50;;;32.30;99.80;;;;;;5090297;28;20205;-83
2022/12/11 05:40:17;;;;;;;5.28;1.50;;;32.30;99.40;;;;;;5084952;28;20219;-82
2022/12/11 05:42:48;;;;;;;5.10;1.48;;;31.80;99.50;;;;;;5073905;28;20689;-82
2022/12/11 05:45:19;;;;;;;5.75;1.50;;;31.60;99.90;;;;;;5077106;28;20478;-83
2022/12/11 05:47:50;;;;;;;7.60;1.63;;;31.60;99.90;;;;;;5078831;28;20198;-83
2022/12/11 05:50:23;;;;;;;6.82;1.50;;;31.60;99.90;;;;;;5072788;28;20239;-82
2022/12/11 05:52:54;;;;;;;8.45;1.70;;;31.80;99.90;;;;;;5088386;28;20227;-82
2022/12/11 05:55:25;;;;;;;5.38;1.40;;;31.70;99.90;;;;;;5095528;28;20223;-82
2022/12/11 05:57:56;;;;;;;8.50;1.50;;;31.80;99.90;;;;;;5110240;28;20183;-83
2022/12/11 06:00:27;;;;;;;8.57;1.77;;;32.20;99.90;;;;;;5095009;28;20561;-83
2022/12/11 06:02:59;;;;;;;5.13;1.50;;;32.10;99.70;;;;;;5092933;28;20213;-82
2022/12/11 06:05:34;;;;;;;5.00;1.30;;;31.60;99.90;;;;;;5072171;28;20571;-82
2022/12/11 06:08:07;;;;;;;6.35;1.40;;;31.90;98.50;;;;;;5072621;28;20206;-83
2022/12/11 06:10:38;;;;;;;6.10;1.50;;;31.90;98.90;;;;;;5091871;28;20206;-82
2022/12/11 06:13:09;;;;;;;4.47;1.15;;;32.10;98.80;;;;;;5091264;28;20226;-81
2022/12/11 06:15:40;;;;;;;4.53;1.33;;;32.40;97.00;;;;;;5091522;28;20199;-81
2022/12/11 06:18:12;;;;;;;5.45;1.45;;;32.30;96.90;;;;;;5091647;28;20196;-81
2022/12/11 06:20:45;;;;;;;5.93;1.52;;;32.40;97.00;;;;;;5091203;28;20627;-82
2022/12/11 06:23:16;;;;;;;6.32;1.50;;;32.30;97.20;;;;;;5091462;28;20688;-82
2022/12/11 06:25:47;;;;;;;4.25;1.60;;;32.10;97.30;;;;;;5091597;28;20199;-82
2022/12/11 06:28:18;;;;;;;5.50;1.52;;;31.50;97.70;;;;;;5091908;28;20219;-82
2022/12/11 06:30:49;;;;;;;7.85;1.67;;;30.80;99.00;;;;;;5071777;28;20239;-82
2022/12/11 06:33:20;;;;;;;7.95;1.70;;;30.20;99.90;;;;;;5088654;28;20226;-82
2022/12/11 06:35:53;;;;;;;7.82;1.55;;;29.90;99.90;;;;;;5090465;28;20205;-82
2022/12/11 06:38:23;;;;;;;5.43;1.70;;;29.40;99.90;;;;;;5090747;28;20630;-82
2022/12/11 06:40:58;;;;;;;7.15;1.30;;;29.30;99.90;;;;;;5091097;28;20199;-82
2022/12/11 06:43:29;;;;;;;7.10;1.60;;;29.30;99.90;;;;;;5090855;28;20588;-82
2022/12/11 06:46:00;;;;;;;6.75;1.50;;;29.70;99.90;;;;;;5091415;28;20199;-82
2022/12/11 06:48:31;;;;;;;5.80;1.63;;;29.60;99.90;;;;;;5091138;28;20287;-84
2022/12/11 06:51:08;;;;;;;6.28;1.67;;;29.80;99.90;;;;;;5091524;28;20203;-81
2022/12/11 06:53:39;;;;;;;5.85;1.80;;;29.90;99.90;;;;;;5090637;28;20237;-82
2022/12/11 06:56:11;;;;;;;7.82;2.10;;;29.80;99.90;;;;;;5090885;28;20234;-81
2022/12/11 06:58:43;;;;;;;7.47;1.75;;;30.30;99.90;;;;;;5096262;28;20286;-82
2022/12/11 07:01:20;;;;;;;7.70;1.58;;;30.90;99.90;;;;;;5100952;28;20191;-83
2022/12/11 07:03:51;;;;;;;8.32;1.75;;;31.00;99.90;;;;;;5079055;28;20195;-81
2022/12/11 07:06:24;;;;;;;7.95;1.65;;;31.40;99.90;;;;;;5081253;28;20576;-80
2022/12/11 07:08:55;;;;;;;4.90;1.25;;;31.80;99.90;;;;;;5070838;28;20200;-82
2022/12/11 07:11:25;;;;;;;7.82;1.60;;;31.80;99.90;;;;;;5089183;28;20199;-81
2022/12/11 07:13:56;;;;;;;5.82;1.42;;;32.10;99.60;;;;;;5091600;28;20666;-82
2022/12/11 07:16:27;;;;;;;5.32;1.60;;;32.40;99.30;;;;;;5092826;28;20223;-82
2022/12/11 07:18:58;;;;;;;5.13;1.52;;;32.30;98.70;;;;;;5090748;28;20662;-82
2022/12/11 07:21:31;;;;;;;6.38;1.60;;;32.50;98.80;;;;;;5090502;28;20203;-82
2022/12/11 07:24:01;;;;;;;5.03;1.40;;;32.50;98.40;;;;;;5090647;28;20199;-82
2022/12/11 07:26:35;;;;;;;4.50;1.40;;;32.50;97.80;;;;;;5090782;28;20699;-82
2022/12/11 07:29:06;;;;;;;7.90;1.83;;;32.70;97.60;;;;;;5088197;28;20234;-81
2022/12/11 07:31:36;;;;;;;7.00;1.60;;;32.50;97.70;;;;;;5089915;28;20561;-81
2022/12/11 07:34:08;;;;;;;5.70;1.42;;;32.60;97.10;;;;;;5090247;28;20209;-82
2022/12/11 07:36:40;;;;;;;9.93;1.70;;;32.30;97.60;;;;;;5090369;28;20209;-82
2022/12/11 07:39:13;;;;;;;6.70;1.42;;;32.30;98.20;;;;;;5088254;28;20196;-82
2022/12/11 07:41:45;;;;;;;4.35;1.30;;;32.10;98.50;;;;;;5079258;28;20206;-81
2022/12/11 07:44:16;;;;;;;5.55;1.40;;;31.90;98.80;;;;;;5075898;28;20206;-81
2022/12/11 07:46:48;;;;;;;8.57;1.65;;;31.80;99.50;;;;;;5090551;28;20249;-83
2022/12/11 07:49:18;;;;;;;9.13;1.50;;;31.60;99.80;;;;;;5090087;28;20274;-82
2022/12/11 07:51:52;;;;;;;9.05;1.92;;;31.00;99.90;;;;;;5090064;28;20203;-81
2022/12/11 07:54:22;;;;;;;8.60;1.85;;;30.30;99.90;;;;;;5085947;28;20231;-82
2022/12/11 07:56:53;;;;;;;5.80;1.50;;;29.60;99.90;;;;;;5090047;28;20191;-82
2022/12/11 07:59:24;;;;;;;4.53;1.40;;;29.00;99.90;;;;;;5090607;28;20684;-81
2022/12/11 08:01:55;;;;;;;6.90;1.42;;;28.50;99.90;;;;;;5101671;28;20188;-82
2022/12/11 08:04:26;;;;;;;7.32;1.55;;;28.10;99.90;;;;;;5079876;28;20196;-82
2022/12/11 08:06:59;;;;;;;5.35;1.58;;;27.90;99.90;;;;;;5069964;28;20206;-82
2022/12/11 08:09:29;;;;;;;5.80;1.60;;;27.70;99.90;;;;;;5070099;28;20714;-82
2022/12/11 08:12:00;;;;;;;8.82;2.15;;;27.60;99.90;;;;;;5069432;28;20222;-81
2022/12/11 08:14:31;;;;;;;9.52;1.70;;;27.40;99.90;;;;;;5074305;28;20245;-81
2022/12/11 08:17:02;;;;;;;8.32;2.20;;;27.20;99.90;;;;;;5093254;28;20197;-81
2022/12/11 08:19:33;;;;;;;11.52;2.28;;;26.80;99.90;;;;;;5093438;28;20288;-82
2022/12/11 08:22:05;;;;;;;7.43;2.03;;;26.60;99.90;;;;;;5093529;28;20193;-82
2022/12/11 08:24:36;;;;;;;7.65;2.08;;;26.50;99.90;;;;;;5093522;28;20294;-82
2022/12/11 08:27:07;;;;;;;3.95;1.30;;;26.40;99.90;;;;;;5093439;28;20219;-81
2022/12/11 08:29:38;;;;;;;5.68;1.17;;;26.20;99.90;;;;;;5092180;28;20234;-82
2022/12/11 08:32:09;;;;;;;8.38;1.77;;;26.00;99.90;;;;;;5090141;28;20227;-81
2022/12/11 08:34:41;;;;;;;5.13;1.38;;;25.80;99.90;;;;;;5093017;28;20669;-82
2022/12/11 08:37:13;;;;;;;7.00;1.63;;;25.80;99.90;;;;;;5092424;28;20689;-81
2022/12/11 08:39:45;;;;;;;9.57;1.70;;;25.70;99.90;;;;;;5092674;28;20733;-83
2022/12/11 08:42:16;;;;;;;9.15;1.58;;;25.70;99.90;;;;;;5102160;28;20218;-84
2022/12/11 08:44:47;;;;;;;9.13;1.52;;;25.60;99.90;;;;;;5096344;28;20191;-82
2022/12/11 08:47:18;;;;;;;6.57;1.60;;;25.70;99.90;;;;;;5097455;28;20572;-83
2022/12/11 08:49:49;;;;;;;6.97;1.48;;;25.60;99.90;;;;;;5096853;28;20206;-83
2022/12/11 08:52:22;;;;;;;7.68;1.27;;;25.60;99.90;;;;;;5094578;28;20230;-84
2022/12/11 08:54:53;;;;;;;9.05;1.45;;;25.50;99.90;;;;;;5090794;28;20195;-84
2022/12/11 08:57:24;;;;;;;5.10;1.30;;;25.50;99.90;;;;;;5097497;28;20195;-84
2022/12/11 08:59:55;;;;;;;5.88;1.52;;;25.50;99.90;;;;;;5099339;28;20278;-83
2022/12/11 09:02:25;;;;;;;6.05;1.70;;;25.50;99.90;;;;;;5102568;28;20199;-83
2022/12/11 09:04:56;;;;;;;6.07;1.48;;;25.40;99.90;;;;;;5104573;28;20195;-83
2022/12/11 09:07:30;;;;;;;4.68;1.70;;;25.40;99.90;;;;;;5096379;28;20195;-83
2022/12/11 09:10:02;;;;;;;4.95;1.42;;;25.40;99.90;;;;;;5091308;28;20719;-83
2022/12/11 09:12:34;;;;;;;8.43;1.92;;;25.50;99.90;;;;;;5093334;28;20622;-82
2022/12/11 09:15:05;;;;;;;9.98;1.80;;;25.40;99.90;;;;;;5094963;28;20234;-82
2022/12/11 09:17:38;;;;;;;5.15;1.55;;;25.40;99.90;;;;;;5096656;28;20749;-83
2022/12/11 09:20:10;;;;;;;6.40;1.60;;;25.30;99.90;;;;;;5097232;28;20195;-84
2022/12/11 09:22:43;;;;;;;12.45;2.25;;;25.20;99.90;;;;;;5097391;28;20259;-83
2022/12/11 09:25:15;;;;;;;5.95;1.48;;;25.30;99.90;;;;;;5098510;28;20191;-83
2022/12/11 09:27:45;;;;;;;11.05;1.92;;;25.30;99.90;;;;;;5094571;28;20260;-82
2022/12/11 09:30:17;;;;;;;9.10;2.03;;;25.20;99.90;;;;;;5097885;28;20259;-83
2022/12/11 09:32:48;;;;;;;8.45;1.90;;;25.20;99.90;;;;;;5099432;28;20237;-82
2022/12/11 09:35:19;;;;;;;5.20;1.58;;;25.20;99.90;;;;;;5094456;28;20180;-82
2022/12/11 09:37:52;;;;;;;10.80;2.30;;;25.20;99.90;;;;;;5102353;28;20254;-83
2022/12/11 09:40:31;;;;;;;7.63;1.77;;;25.20;99.90;;;;;;5097237;28;20282;-83
2022/12/11 09:43:07;;;;;;;10.07;2.30;;;25.20;99.90;;;;;;5082029;28;20596;-82
2022/12/11 09:45:39;;;;;;;6.95;1.70;;;25.20;99.90;;;;;;5095494;28;20669;-83
2022/12/11 09:48:13;;;;;;;12.13;1.92;;;25.20;99.90;;;;;;5095454;28;20683;-84
2022/12/11 09:50:44;;;;;;;8.13;2.03;;;25.20;99.90;;;;;;5094033;28;20218;-83
2022/12/11 09:53:23;;;;;;;11.15;2.38;;;25.10;99.90;;;;;;5095382;28;20302;-83
2022/12/11 09:56:01;;;;;;;8.98;1.90;;;25.10;99.90;;;;;;5096421;28;20286;-83
2022/12/11 09:58:41;;;;;;;10.40;1.88;;;25.10;99.90;;;;;;5095627;28;20681;-83
2022/12/11 10:01:21;;;;;;;3.90;1.60;;;25.10;99.90;;;;;;5093097;28;20654;-83
2022/12/11 10:04:07;;;;;;;7.07;1.90;;;25.10;99.90;;;;;;5094875;28;20191;-83
2022/12/11 10:06:43;;;;;;;7.63;2.08;;;25.10;99.90;;;;;;5091946;28;20199;-82
2022/12/11 10:09:25;;;;;;;12.05;2.08;;;25.20;99.90;;;;;;5092648;28;20222;-83
2022/12/11 10:12:13;;;;;;;7.28;1.95;;;25.10;99.90;;;;;;5092489;28;20572;-82
2022/12/11 10:14:56;;;;;;;13.02;2.65;;;25.20;99.90;;;;;;5095838;28;20231;-82
2022/12/11 10:17:33;;;;;;;9.48;1.92;;;25.20;99.90;;;;;;5095808;28;20309;-82
2022/12/11 10:23:07;;;;;;;8.95;2.35;;;25.20;99.90;;;;;;5111416;28;20216;-84
2022/12/11 10:25:47;;;;;;;10.75;2.10;;;25.00;99.90;;;;;;5098678;28;20205;-83
2022/12/11 10:28:24;;;;;;;11.73;2.35;;;25.00;99.90;;;;;;5099330;28;20238;-84
2022/12/11 10:31:05;;;;;;;9.43;2.20;;;25.10;99.90;;;;;;5098209;28;20199;-83
2022/12/11 10:33:50;;;;;;;7.72;1.90;;;25.10;99.90;;;;;;5097982;28;20219;-84
2022/12/11 10:36:27;;;;;;;12.63;2.65;;;25.00;99.90;;;;;;5088740;28;20199;-84
2022/12/11 10:39:01;;;;;;;10.70;2.55;;;25.00;99.90;;;;;;5080635;28;20216;-84
2022/12/11 10:41:42;;;;;;;8.80;2.40;;;25.00;99.90;;;;;;5096442;28;20281;-84
2022/12/11 10:44:21;;;;;;;7.43;1.90;;;25.00;99.90;;;;;;5094618;28;20579;-83
2022/12/11 10:47:04;;;;;;;9.25;1.85;;;25.00;99.90;;;;;;5089243;28;20191;-83
2022/12/11 10:49:38;;;;;;;10.52;2.13;;;25.00;99.90;;;;;;5097710;28;20195;-83
2022/12/11 10:52:17;;;;;;;15.98;2.88;;;24.90;99.90;;;;;;5096721;28;20578;-84
2022/12/11 10:54:55;;;;;;;14.07;2.70;;;24.90;99.90;;;;;;5096248;28;20570;-83
2022/12/11 10:57:32;;;;;;;7.47;2.35;;;24.90;99.90;;;;;;5094599;28;20206;-83
2022/12/11 11:00:05;;;;;;;11.13;2.45;;;24.80;99.90;;;;;;5081490;28;20199;-83
2022/12/11 11:02:49;;;;;;;12.65;2.63;;;24.80;99.90;;;;;;5098939;28;20195;-84
2022/12/11 11:05:31;;;;;;;10.25;2.65;;;24.80;99.90;;;;;;5095246;28;20202;-83
2022/12/11 11:08:17;;;;;;;9.32;2.15;;;24.80;99.90;;;;;;5105997;28;20183;-84
2022/12/11 11:10:57;;;;;;;9.13;2.25;;;24.80;99.90;;;;;;5095855;28;20217;-84
2022/12/11 11:13:36;;;;;;;12.07;2.45;;;24.70;99.90;;;;;;5097927;28;20222;-84
2022/12/11 11:16:14;;;;;;;13.73;2.75;;;24.80;99.90;;;;;;5094024;28;20621;-84
2022/12/11 11:18:52;;;;;;;13.07;2.63;;;24.70;99.90;;;;;;5078844;28;20201;-83
2022/12/11 11:21:25;;;;;;;14.68;3.00;;;24.70;99.90;;;;;;5083577;28;20233;-84
2022/12/11 11:23:56;;;;;;;8.50;2.50;;;24.70;99.90;;;;;;5095527;28;20203;-84
2022/12/11 11:26:27;;;;;;;12.35;2.85;;;24.70;99.90;;;;;;5093796;28;20205;-83
2022/12/11 11:29:00;;;;;;;11.95;2.60;;;24.70;99.90;;;;;;5093952;28;20215;-82
2022/12/11 11:31:35;;;;;;;9.65;2.72;;;24.70;99.90;;;;;;5093848;28;20199;-82
2022/12/11 11:34:09;;;;;;;13.10;2.90;;;24.70;99.90;;;;;;5093715;28;20234;-83
2022/12/11 11:36:45;;;;;;;12.65;3.00;;;24.70;99.90;;;;;;5093402;28;20238;-83
2022/12/11 11:39:22;;;;;;;13.43;3.30;;;24.70;99.90;;;;;;5098469;28;20244;-82
2022/12/11 11:41:59;;;;;;;14.23;3.20;;;24.70;99.90;;;;;;5094746;28;20290;-82
2022/12/11 11:44:37;;;;;;;12.45;2.85;;;24.70;99.90;;;;;;5095824;28;20201;-83
2022/12/11 11:47:16;;;;;;;8.85;2.92;;;24.70;99.90;;;;;;5097240;28;20195;-82
2022/12/11 11:49:57;;;;;;;11.73;3.03;;;24.70;99.90;;;;;;5095787;28;20202;-82
2022/12/11 11:52:38;;;;;;;13.38;3.15;;;24.70;99.90;;;;;;5101282;28;20742;-83
2022/12/11 11:55:18;;;;;;;10.32;2.35;;;24.70;99.90;;;;;;5100311;28;20306;-83
2022/12/11 11:57:57;;;;;;;11.40;2.70;;;24.70;99.90;;;;;;5088178;28;20676;-84
2022/12/11 12:00:32;;;;;;;10.50;2.80;;;24.70;99.90;;;;;;5088242;28;20227;-80
2022/12/11 12:03:07;;;;;;;9.52;2.47;;;24.60;99.90;;;;;;5095236;28;20194;-82
2022/12/11 12:05:44;;;;;;;12.60;3.08;;;24.60;99.90;;;;;;5091612;28;20217;-81
2022/12/11 12:08:22;;;;;;;10.40;2.80;;;24.60;99.90;;;;;;5081639;28;20278;-82
2022/12/11 12:11:00;;;;;;;10.00;3.00;;;24.70;99.90;;;;;;5088845;28;20650;-82
2022/12/11 12:13:42;;;;;;;13.85;3.03;;;24.60;99.90;;;;;;5086886;28;20238;-82
2022/12/11 12:16:21;;;;;;;12.77;2.63;;;24.60;99.90;;;;;;5095879;28;20233;-82
2022/12/11 12:19:06;;;;;;;12.07;3.00;;;24.50;99.90;;;;;;5088692;28;20203;-81
2022/12/11 12:21:38;;;;;;;10.68;2.63;;;24.50;99.90;;;;;;5073397;28;20206;-81
2022/12/11 12:24:22;;;;;;;13.57;3.08;;;24.50;99.90;;;;;;5093459;28;20575;-81
2022/12/11 12:27:00;;;;;;;11.27;2.50;;;24.50;99.90;;;;;;5094178;28;20572;-82
2022/12/11 12:29:46;;;;;;;12.35;2.45;;;24.50;99.90;;;;;;5084910;28;20206;-82
2022/12/11 12:32:25;;;;;;;13.45;3.08;;;24.50;99.90;;;;;;5073204;28;20202;-81
2022/12/11 12:35:08;;;;;;;7.63;2.53;;;24.50;99.90;;;;;;5091200;28;20727;-80
2022/12/11 12:37:52;;;;;;;10.90;2.90;;;24.50;99.90;;;;;;5093236;28;20286;-81
2022/12/11 12:40:31;;;;;;;8.95;2.60;;;24.50;99.90;;;;;;5091460;28;20195;-81
2022/12/11 12:43:19;;;;;;;11.73;2.80;;;24.50;99.90;;;;;;5093338;28;20272;-82
2022/12/11 12:46:01;;;;;;;12.98;2.55;;;24.50;99.90;;;;;;5093421;28;20801;-81
2022/12/11 12:48:40;;;;;;;7.90;2.58;;;24.50;99.90;;;;;;5093341;28;20198;-82
2022/12/11 12:51:17;;;;;;;11.02;2.75;;;24.50;99.90;;;;;;5094853;28;20199;-81
2022/12/11 12:53:56;;;;;;;9.77;2.72;;;24.50;99.90;;;;;;5074187;28;20275;-82
2022/12/11 12:56:29;;;;;;;11.50;2.47;;;24.50;99.90;;;;;;5083491;28;20206;-82
2022/12/11 12:59:01;;;;;;;10.38;2.55;;;24.50;99.90;;;;;;5095212;28;20576;-83
2022/12/11 13:01:33;;;;;;;10.98;2.50;;;24.50;99.90;;;;;;5094982;28;20214;-83
2022/12/11 13:04:13;;;;;;;8.43;2.45;;;24.50;99.90;;;;;;5093104;28;20191;-83
2022/12/11 13:06:47;;;;;;;13.45;2.97;;;24.50;99.90;;;;;;5090506;28;20509;-83
2022/12/11 13:09:27;;;;;;;7.40;1.98;;;24.40;99.90;;;;;;5077302;28;20673;-82
2022/12/11 13:11:59;;;;;;;9.02;2.08;;;24.50;99.90;;;;;;5085074;28;20646;-83
2022/12/11 13:14:32;;;;;;;5.88;2.20;;;24.50;99.90;;;;;;5087265;28;20240;-83
2022/12/11 13:17:45;;;;;;;9.38;2.38;;;24.40;99.90;;;;;;5093008;28;20226;-83
2022/12/11 13:20:23;;;;;;;9.68;2.20;;;24.40;99.90;;;;;;5082424;28;20265;-82
2022/12/11 13:22:57;;;;;;;5.57;1.92;;;24.50;99.90;;;;;;5087570;28;20202;-82
2022/12/11 13:25:32;;;;;;;9.13;2.30;;;24.50;99.90;;;;;;5088570;28;20203;-82
2022/12/11 13:31:08;;;;;;;7.63;2.08;;;24.50;99.90;;;;;;5094111;28;20199;-83
2022/12/11 13:33:46;;;;;;;6.07;2.00;;;24.50;99.90;;;;;;5093185;28;20218;-84
2022/12/11 13:36:32;;;;;;;7.25;1.90;;;24.50;99.90;;;;;;5093696;28;20209;-83